sensor_id;sensor_type;location;lat;lon;timestamp;P1;durP1;ratioP1;P2;durP2;ratioP2
82642;SDS011;72323;41.914;22.438;2023-11-19T00:02:12;4.55;;;1.98;;
82642;SDS011;72323;41.914;22.438;2023-11-19T00:04:38;3.65;;;1.67;;
82642;SDS011;72323;41.914;22.438;2023-11-19T00:07:07;4.38;;;1.73;;
82642;SDS011;72323;41.914;22.438;2023-11-19T00:09:35;3.38;;;1.70;;
82642;SDS011;72323;41.914;22.438;2023-11-19T00:12:05;1.85;;;1.10;;
82642;SDS011;72323;41.914;22.438;2023-11-19T00:14:32;2.55;;;1.33;;
82642;SDS011;72323;41.914;22.438;2023-11-19T00:16:59;2.92;;;1.35;;
82642;SDS011;72323;41.914;22.438;2023-11-19T00:19:25;2.72;;;1.25;;
82642;SDS011;72323;41.914;22.438;2023-11-19T00:21:51;2.88;;;1.45;;
82642;SDS011;72323;41.914;22.438;2023-11-19T00:24:18;2.72;;;1.30;;
82642;SDS011;72323;41.914;22.438;2023-11-19T00:26:45;1.67;;;0.98;;
82642;SDS011;72323;41.914;22.438;2023-11-19T00:29:11;2.72;;;1.10;;
82642;SDS011;72323;41.914;22.438;2023-11-19T00:31:39;2.13;;;0.80;;
82642;SDS011;72323;41.914;22.438;2023-11-19T00:34:05;1.95;;;0.77;;
82642;SDS011;72323;41.914;22.438;2023-11-19T00:36:31;1.92;;;0.90;;
82642;SDS011;72323;41.914;22.438;2023-11-19T00:38:57;1.13;;;0.60;;
82642;SDS011;72323;41.914;22.438;2023-11-19T00:41:23;1.35;;;0.68;;
82642;SDS011;72323;41.914;22.438;2023-11-19T00:43:50;0.88;;;0.40;;
82642;SDS011;72323;41.914;22.438;2023-11-19T00:46:16;1.95;;;0.57;;
82642;SDS011;72323;41.914;22.438;2023-11-19T00:48:43;1.58;;;0.73;;
82642;SDS011;72323;41.914;22.438;2023-11-19T00:51:11;1.85;;;0.98;;
82642;SDS011;72323;41.914;22.438;2023-11-19T00:53:37;2.70;;;1.30;;
82642;SDS011;72323;41.914;22.438;2023-11-19T00:56:03;1.35;;;0.90;;
82642;SDS011;72323;41.914;22.438;2023-11-19T00:58:29;1.20;;;0.60;;
82642;SDS011;72323;41.914;22.438;2023-11-19T01:00:55;1.55;;;0.68;;
82642;SDS011;72323;41.914;22.438;2023-11-19T01:03:22;1.48;;;0.60;;
82642;SDS011;72323;41.914;22.438;2023-11-19T01:05:48;1.83;;;0.60;;
82642;SDS011;72323;41.914;22.438;2023-11-19T01:08:14;2.90;;;1.20;;
82642;SDS011;72323;41.914;22.438;2023-11-19T01:10:41;2.58;;;1.20;;
82642;SDS011;72323;41.914;22.438;2023-11-19T01:13:07;2.40;;;1.23;;
82642;SDS011;72323;41.914;22.438;2023-11-19T01:15:33;4.38;;;1.48;;
82642;SDS011;72323;41.914;22.438;2023-11-19T01:17:59;3.42;;;1.10;;
82642;SDS011;72323;41.914;22.438;2023-11-19T01:20:29;4.28;;;1.45;;
82642;SDS011;72323;41.914;22.438;2023-11-19T01:22:56;4.28;;;1.98;;
82642;SDS011;72323;41.914;22.438;2023-11-19T01:25:22;3.90;;;1.33;;
82642;SDS011;72323;41.914;22.438;2023-11-19T01:27:48;3.58;;;1.75;;
82642;SDS011;72323;41.914;22.438;2023-11-19T01:30:15;3.72;;;1.50;;
82642;SDS011;72323;41.914;22.438;2023-11-19T01:32:41;3.35;;;1.23;;
82642;SDS011;72323;41.914;22.438;2023-11-19T01:35:07;4.10;;;2.17;;
82642;SDS011;72323;41.914;22.438;2023-11-19T01:37:33;3.47;;;1.50;;
82642;SDS011;72323;41.914;22.438;2023-11-19T01:40:00;3.50;;;1.38;;
82642;SDS011;72323;41.914;22.438;2023-11-19T01:42:29;3.33;;;1.48;;
82642;SDS011;72323;41.914;22.438;2023-11-19T01:44:58;5.18;;;1.30;;
82642;SDS011;72323;41.914;22.438;2023-11-19T01:47:25;3.67;;;1.52;;
82642;SDS011;72323;41.914;22.438;2023-11-19T01:49:51;1.95;;;1.13;;
82642;SDS011;72323;41.914;22.438;2023-11-19T01:52:18;3.35;;;1.10;;
82642;SDS011;72323;41.914;22.438;2023-11-19T01:54:44;2.03;;;1.20;;
82642;SDS011;72323;41.914;22.438;2023-11-19T01:57:10;3.00;;;1.30;;
82642;SDS011;72323;41.914;22.438;2023-11-19T01:59:37;1.73;;;0.70;;
82642;SDS011;72323;41.914;22.438;2023-11-19T02:02:03;2.22;;;1.00;;
82642;SDS011;72323;41.914;22.438;2023-11-19T02:04:30;2.22;;;0.90;;
82642;SDS011;72323;41.914;22.438;2023-11-19T02:06:57;2.00;;;0.82;;
82642;SDS011;72323;41.914;22.438;2023-11-19T02:09:24;1.65;;;0.85;;
82642;SDS011;72323;41.914;22.438;2023-11-19T02:11:50;1.80;;;1.00;;
82642;SDS011;72323;41.914;22.438;2023-11-19T02:14:19;1.60;;;0.80;;
82642;SDS011;72323;41.914;22.438;2023-11-19T02:16:47;2.60;;;1.35;;
82642;SDS011;72323;41.914;22.438;2023-11-19T02:19:14;2.45;;;1.10;;
82642;SDS011;72323;41.914;22.438;2023-11-19T02:21:40;1.48;;;0.82;;
82642;SDS011;72323;41.914;22.438;2023-11-19T02:24:07;2.00;;;0.93;;
82642;SDS011;72323;41.914;22.438;2023-11-19T02:29:00;1.95;;;0.90;;
82642;SDS011;72323;41.914;22.438;2023-11-19T02:31:26;2.45;;;1.40;;
82642;SDS011;72323;41.914;22.438;2023-11-19T02:33:52;2.28;;;0.98;;
82642;SDS011;72323;41.914;22.438;2023-11-19T02:36:18;2.00;;;1.05;;
82642;SDS011;72323;41.914;22.438;2023-11-19T02:38:46;1.70;;;0.95;;
82642;SDS011;72323;41.914;22.438;2023-11-19T02:41:13;1.60;;;0.82;;
82642;SDS011;72323;41.914;22.438;2023-11-19T02:43:39;2.08;;;1.20;;
82642;SDS011;72323;41.914;22.438;2023-11-19T02:46:05;3.25;;;1.20;;
82642;SDS011;72323;41.914;22.438;2023-11-19T02:48:32;4.75;;;1.05;;
82642;SDS011;72323;41.914;22.438;2023-11-19T02:51:00;2.67;;;1.30;;
82642;SDS011;72323;41.914;22.438;2023-11-19T02:53:28;3.55;;;1.23;;
82642;SDS011;72323;41.914;22.438;2023-11-19T02:55:54;5.50;;;1.42;;
82642;SDS011;72323;41.914;22.438;2023-11-19T02:58:26;1.90;;;1.10;;
82642;SDS011;72323;41.914;22.438;2023-11-19T03:00:54;2.30;;;1.35;;
82642;SDS011;72323;41.914;22.438;2023-11-19T03:03:23;2.75;;;1.10;;
82642;SDS011;72323;41.914;22.438;2023-11-19T03:05:53;3.75;;;1.15;;
82642;SDS011;72323;41.914;22.438;2023-11-19T03:08:20;2.90;;;1.30;;
82642;SDS011;72323;41.914;22.438;2023-11-19T03:10:47;2.10;;;1.38;;
82642;SDS011;72323;41.914;22.438;2023-11-19T03:13:13;2.53;;;1.30;;
82642;SDS011;72323;41.914;22.438;2023-11-19T03:15:40;2.53;;;1.20;;
82642;SDS011;72323;41.914;22.438;2023-11-19T03:18:06;2.80;;;1.40;;
82642;SDS011;72323;41.914;22.438;2023-11-19T03:20:33;2.47;;;1.02;;
82642;SDS011;72323;41.914;22.438;2023-11-19T03:22:59;2.83;;;1.40;;
82642;SDS011;72323;41.914;22.438;2023-11-19T03:25:26;2.10;;;1.20;;
82642;SDS011;72323;41.914;22.438;2023-11-19T03:27:58;2.75;;;1.52;;
82642;SDS011;72323;41.914;22.438;2023-11-19T03:30:24;2.88;;;1.52;;
82642;SDS011;72323;41.914;22.438;2023-11-19T03:32:50;2.85;;;1.38;;
82642;SDS011;72323;41.914;22.438;2023-11-19T03:35:16;3.63;;;1.55;;
82642;SDS011;72323;41.914;22.438;2023-11-19T03:37:42;3.67;;;1.67;;
82642;SDS011;72323;41.914;22.438;2023-11-19T03:40:09;3.50;;;2.15;;
82642;SDS011;72323;41.914;22.438;2023-11-19T03:42:38;2.88;;;1.60;;
82642;SDS011;72323;41.914;22.438;2023-11-19T03:45:05;3.28;;;1.83;;
82642;SDS011;72323;41.914;22.438;2023-11-19T03:47:33;4.93;;;2.25;;
82642;SDS011;72323;41.914;22.438;2023-11-19T03:50:00;4.13;;;1.80;;
82642;SDS011;72323;41.914;22.438;2023-11-19T03:52:26;2.70;;;1.65;;
82642;SDS011;72323;41.914;22.438;2023-11-19T03:54:52;3.53;;;1.58;;
82642;SDS011;72323;41.914;22.438;2023-11-19T03:57:20;2.92;;;1.70;;
82642;SDS011;72323;41.914;22.438;2023-11-19T03:59:46;3.83;;;1.75;;
82642;SDS011;72323;41.914;22.438;2023-11-19T04:02:12;3.53;;;1.42;;
82642;SDS011;72323;41.914;22.438;2023-11-19T04:04:38;2.65;;;1.30;;
82642;SDS011;72323;41.914;22.438;2023-11-19T04:07:05;4.38;;;2.42;;
82642;SDS011;72323;41.914;22.438;2023-11-19T04:09:31;3.20;;;1.40;;
82642;SDS011;72323;41.914;22.438;2023-11-19T04:12:02;4.50;;;1.58;;
82642;SDS011;72323;41.914;22.438;2023-11-19T04:14:28;3.67;;;2.13;;
82642;SDS011;72323;41.914;22.438;2023-11-19T04:16:55;6.28;;;2.15;;
82642;SDS011;72323;41.914;22.438;2023-11-19T04:19:21;4.03;;;2.15;;
82642;SDS011;72323;41.914;22.438;2023-11-19T04:21:47;4.05;;;2.17;;
82642;SDS011;72323;41.914;22.438;2023-11-19T04:24:13;3.13;;;2.03;;
82642;SDS011;72323;41.914;22.438;2023-11-19T04:26:43;4.05;;;1.98;;
82642;SDS011;72323;41.914;22.438;2023-11-19T04:29:11;3.67;;;2.00;;
82642;SDS011;72323;41.914;22.438;2023-11-19T04:31:37;5.53;;;2.13;;
82642;SDS011;72323;41.914;22.438;2023-11-19T04:34:04;3.47;;;1.80;;
82642;SDS011;72323;41.914;22.438;2023-11-19T04:36:31;4.38;;;1.80;;
82642;SDS011;72323;41.914;22.438;2023-11-19T04:38:58;3.47;;;2.10;;
82642;SDS011;72323;41.914;22.438;2023-11-19T04:41:25;2.67;;;1.48;;
82642;SDS011;72323;41.914;22.438;2023-11-19T04:43:52;3.13;;;1.90;;
82642;SDS011;72323;41.914;22.438;2023-11-19T04:46:18;3.20;;;1.73;;
82642;SDS011;72323;41.914;22.438;2023-11-19T04:48:45;3.78;;;2.08;;
82642;SDS011;72323;41.914;22.438;2023-11-19T04:51:11;4.55;;;3.30;;
82642;SDS011;72323;41.914;22.438;2023-11-19T04:53:37;3.78;;;2.00;;
82642;SDS011;72323;41.914;22.438;2023-11-19T04:56:10;4.43;;;1.95;;
82642;SDS011;72323;41.914;22.438;2023-11-19T04:58:36;3.00;;;1.50;;
82642;SDS011;72323;41.914;22.438;2023-11-19T05:01:03;4.63;;;3.17;;
82642;SDS011;72323;41.914;22.438;2023-11-19T05:03:30;3.15;;;1.73;;
82642;SDS011;72323;41.914;22.438;2023-11-19T05:05:56;3.63;;;1.85;;
82642;SDS011;72323;41.914;22.438;2023-11-19T05:08:22;3.00;;;1.63;;
82642;SDS011;72323;41.914;22.438;2023-11-19T05:10:49;2.92;;;1.80;;
82642;SDS011;72323;41.914;22.438;2023-11-19T05:13:15;2.95;;;1.60;;
82642;SDS011;72323;41.914;22.438;2023-11-19T05:15:42;3.15;;;1.77;;
82642;SDS011;72323;41.914;22.438;2023-11-19T05:18:08;4.97;;;1.92;;
82642;SDS011;72323;41.914;22.438;2023-11-19T05:20:34;4.72;;;1.80;;
82642;SDS011;72323;41.914;22.438;2023-11-19T05:23:00;4.18;;;2.05;;
82642;SDS011;72323;41.914;22.438;2023-11-19T05:25:26;4.00;;;2.05;;
82642;SDS011;72323;41.914;22.438;2023-11-19T05:27:53;4.00;;;1.90;;
82642;SDS011;72323;41.914;22.438;2023-11-19T05:30:19;5.53;;;2.22;;
82642;SDS011;72323;41.914;22.438;2023-11-19T05:32:45;3.50;;;2.00;;
82642;SDS011;72323;41.914;22.438;2023-11-19T05:35:11;4.55;;;2.75;;
82642;SDS011;72323;41.914;22.438;2023-11-19T05:37:37;4.32;;;2.30;;
82642;SDS011;72323;41.914;22.438;2023-11-19T05:40:04;3.40;;;1.98;;
82642;SDS011;72323;41.914;22.438;2023-11-19T05:42:39;3.97;;;1.98;;
82642;SDS011;72323;41.914;22.438;2023-11-19T05:45:06;6.32;;;2.88;;
82642;SDS011;72323;41.914;22.438;2023-11-19T05:47:33;6.80;;;3.28;;
82642;SDS011;72323;41.914;22.438;2023-11-19T05:49:59;4.25;;;1.95;;
82642;SDS011;72323;41.914;22.438;2023-11-19T05:52:25;4.53;;;2.33;;
82642;SDS011;72323;41.914;22.438;2023-11-19T05:54:53;3.22;;;1.77;;
82642;SDS011;72323;41.914;22.438;2023-11-19T05:57:19;3.60;;;1.75;;
82642;SDS011;72323;41.914;22.438;2023-11-19T05:59:48;5.70;;;3.38;;
82642;SDS011;72323;41.914;22.438;2023-11-19T06:02:15;7.07;;;3.05;;
82642;SDS011;72323;41.914;22.438;2023-11-19T06:04:41;4.82;;;2.20;;
82642;SDS011;72323;41.914;22.438;2023-11-19T06:07:09;4.03;;;2.00;;
82642;SDS011;72323;41.914;22.438;2023-11-19T06:09:35;5.40;;;3.13;;
82642;SDS011;72323;41.914;22.438;2023-11-19T06:12:01;5.20;;;2.42;;
82642;SDS011;72323;41.914;22.438;2023-11-19T06:14:28;3.95;;;2.40;;
82642;SDS011;72323;41.914;22.438;2023-11-19T06:16:54;4.03;;;2.17;;
82642;SDS011;72323;41.914;22.438;2023-11-19T06:19:20;3.58;;;2.08;;
82642;SDS011;72323;41.914;22.438;2023-11-19T06:21:46;4.10;;;2.17;;
82642;SDS011;72323;41.914;22.438;2023-11-19T06:24:12;3.67;;;2.33;;
82642;SDS011;72323;41.914;22.438;2023-11-19T06:26:38;3.92;;;2.80;;
82642;SDS011;72323;41.914;22.438;2023-11-19T06:29:05;4.47;;;2.63;;
82642;SDS011;72323;41.914;22.438;2023-11-19T06:31:31;7.93;;;3.95;;
82642;SDS011;72323;41.914;22.438;2023-11-19T06:33:57;5.95;;;3.65;;
82642;SDS011;72323;41.914;22.438;2023-11-19T06:36:23;7.50;;;4.47;;
82642;SDS011;72323;41.914;22.438;2023-11-19T06:38:49;9.07;;;5.00;;
82642;SDS011;72323;41.914;22.438;2023-11-19T06:41:15;7.72;;;4.82;;
82642;SDS011;72323;41.914;22.438;2023-11-19T06:43:41;7.43;;;4.45;;
82642;SDS011;72323;41.914;22.438;2023-11-19T06:46:15;15.60;;;8.90;;
82642;SDS011;72323;41.914;22.438;2023-11-19T06:48:41;6.78;;;4.72;;
82642;SDS011;72323;41.914;22.438;2023-11-19T06:51:09;8.70;;;4.22;;
82642;SDS011;72323;41.914;22.438;2023-11-19T06:53:35;7.82;;;4.63;;
82642;SDS011;72323;41.914;22.438;2023-11-19T06:56:01;8.00;;;4.45;;
82642;SDS011;72323;41.914;22.438;2023-11-19T06:58:35;9.35;;;5.00;;
82642;SDS011;72323;41.914;22.438;2023-11-19T07:01:01;2.78;;;2.15;;
82642;SDS011;72323;41.914;22.438;2023-11-19T07:03:28;4.28;;;2.03;;
82642;SDS011;72323;41.914;22.438;2023-11-19T07:05:54;4.45;;;2.22;;
82642;SDS011;72323;41.914;22.438;2023-11-19T07:08:20;3.63;;;2.00;;
82642;SDS011;72323;41.914;22.438;2023-11-19T07:10:46;4.18;;;2.33;;
82642;SDS011;72323;41.914;22.438;2023-11-19T07:13:14;3.00;;;1.83;;
82642;SDS011;72323;41.914;22.438;2023-11-19T07:15:40;2.42;;;1.55;;
82642;SDS011;72323;41.914;22.438;2023-11-19T07:18:06;2.72;;;1.52;;
82642;SDS011;72323;41.914;22.438;2023-11-19T07:20:32;3.60;;;1.55;;
82642;SDS011;72323;41.914;22.438;2023-11-19T07:22:58;3.58;;;2.17;;
82642;SDS011;72323;41.914;22.438;2023-11-19T07:25:24;3.22;;;1.83;;
82642;SDS011;72323;41.914;22.438;2023-11-19T07:27:51;2.70;;;1.52;;
82642;SDS011;72323;41.914;22.438;2023-11-19T07:30:18;3.60;;;1.70;;
82642;SDS011;72323;41.914;22.438;2023-11-19T07:32:44;2.95;;;1.50;;
82642;SDS011;72323;41.914;22.438;2023-11-19T07:35:10;4.03;;;2.00;;
82642;SDS011;72323;41.914;22.438;2023-11-19T07:37:36;2.28;;;1.40;;
82642;SDS011;72323;41.914;22.438;2023-11-19T07:40:03;3.10;;;1.77;;
82642;SDS011;72323;41.914;22.438;2023-11-19T07:42:29;3.08;;;2.08;;
82642;SDS011;72323;41.914;22.438;2023-11-19T07:44:56;2.55;;;1.42;;
82642;SDS011;72323;41.914;22.438;2023-11-19T07:47:22;3.28;;;1.70;;
82642;SDS011;72323;41.914;22.438;2023-11-19T07:49:52;3.45;;;1.88;;
82642;SDS011;72323;41.914;22.438;2023-11-19T07:52:18;2.72;;;1.60;;
82642;SDS011;72323;41.914;22.438;2023-11-19T07:54:44;5.50;;;3.03;;
82642;SDS011;72323;41.914;22.438;2023-11-19T07:57:11;3.38;;;2.35;;
82642;SDS011;72323;41.914;22.438;2023-11-19T07:59:37;4.28;;;2.30;;
82642;SDS011;72323;41.914;22.438;2023-11-19T08:02:04;5.45;;;2.70;;
82642;SDS011;72323;41.914;22.438;2023-11-19T08:04:31;3.70;;;2.30;;
82642;SDS011;72323;41.914;22.438;2023-11-19T08:06:57;3.28;;;2.00;;
82642;SDS011;72323;41.914;22.438;2023-11-19T08:09:23;3.75;;;1.70;;
82642;SDS011;72323;41.914;22.438;2023-11-19T08:11:49;3.10;;;2.25;;
82642;SDS011;72323;41.914;22.438;2023-11-19T08:14:16;4.63;;;2.65;;
82642;SDS011;72323;41.914;22.438;2023-11-19T08:16:42;3.20;;;1.60;;
82642;SDS011;72323;41.914;22.438;2023-11-19T08:19:08;2.75;;;1.45;;
82642;SDS011;72323;41.914;22.438;2023-11-19T08:21:34;3.05;;;1.73;;
82642;SDS011;72323;41.914;22.438;2023-11-19T08:24:00;6.60;;;1.75;;
82642;SDS011;72323;41.914;22.438;2023-11-19T08:26:26;2.72;;;1.48;;
82642;SDS011;72323;41.914;22.438;2023-11-19T08:28:52;2.60;;;1.33;;
82642;SDS011;72323;41.914;22.438;2023-11-19T08:31:18;3.95;;;1.45;;
82642;SDS011;72323;41.914;22.438;2023-11-19T08:33:44;3.40;;;1.27;;
82642;SDS011;72323;41.914;22.438;2023-11-19T08:36:17;2.55;;;1.48;;
82642;SDS011;72323;41.914;22.438;2023-11-19T08:38:43;2.45;;;1.23;;
82642;SDS011;72323;41.914;22.438;2023-11-19T08:41:09;4.07;;;1.33;;
82642;SDS011;72323;41.914;22.438;2023-11-19T08:43:35;2.95;;;1.20;;
82642;SDS011;72323;41.914;22.438;2023-11-19T08:46:01;1.98;;;1.02;;
82642;SDS011;72323;41.914;22.438;2023-11-19T08:48:27;1.95;;;1.25;;
82642;SDS011;72323;41.914;22.438;2023-11-19T08:50:53;1.92;;;1.00;;
82642;SDS011;72323;41.914;22.438;2023-11-19T08:53:19;1.73;;;0.85;;
82642;SDS011;72323;41.914;22.438;2023-11-19T08:55:46;4.45;;;1.08;;
82642;SDS011;72323;41.914;22.438;2023-11-19T08:58:12;1.92;;;1.00;;
82642;SDS011;72323;41.914;22.438;2023-11-19T09:00:38;2.13;;;1.20;;
82642;SDS011;72323;41.914;22.438;2023-11-19T09:03:04;2.50;;;1.25;;
82642;SDS011;72323;41.914;22.438;2023-11-19T09:05:30;1.50;;;0.95;;
82642;SDS011;72323;41.914;22.438;2023-11-19T09:07:56;1.95;;;1.10;;
82642;SDS011;72323;41.914;22.438;2023-11-19T09:10:22;3.42;;;1.25;;
82642;SDS011;72323;41.914;22.438;2023-11-19T09:12:48;2.33;;;1.25;;
82642;SDS011;72323;41.914;22.438;2023-11-19T09:15:14;1.90;;;1.00;;
82642;SDS011;72323;41.914;22.438;2023-11-19T09:17:40;1.90;;;1.05;;
82642;SDS011;72323;41.914;22.438;2023-11-19T09:20:07;1.92;;;1.10;;
82642;SDS011;72323;41.914;22.438;2023-11-19T09:22:33;2.50;;;0.98;;
82642;SDS011;72323;41.914;22.438;2023-11-19T09:24:59;5.63;;;1.13;;
82642;SDS011;72323;41.914;22.438;2023-11-19T09:27:25;1.77;;;0.95;;
82642;SDS011;72323;41.914;22.438;2023-11-19T09:29:51;1.63;;;0.80;;
82642;SDS011;72323;41.914;22.438;2023-11-19T09:32:22;2.22;;;0.90;;
82642;SDS011;72323;41.914;22.438;2023-11-19T09:34:48;2.08;;;1.08;;
82642;SDS011;72323;41.914;22.438;2023-11-19T09:37:15;1.92;;;1.13;;
82642;SDS011;72323;41.914;22.438;2023-11-19T09:39:41;3.30;;;1.30;;
82642;SDS011;72323;41.914;22.438;2023-11-19T09:42:11;1.95;;;1.00;;
82642;SDS011;72323;41.914;22.438;2023-11-19T09:44:38;2.38;;;1.27;;
82642;SDS011;72323;41.914;22.438;2023-11-19T09:47:05;1.85;;;1.10;;
82642;SDS011;72323;41.914;22.438;2023-11-19T09:49:32;4.50;;;1.30;;
82642;SDS011;72323;41.914;22.438;2023-11-19T09:51:58;1.92;;;1.15;;
82642;SDS011;72323;41.914;22.438;2023-11-19T09:54:25;4.28;;;1.30;;
82642;SDS011;72323;41.914;22.438;2023-11-19T09:56:51;2.40;;;1.10;;
82642;SDS011;72323;41.914;22.438;2023-11-19T09:59:17;1.98;;;1.02;;
82642;SDS011;72323;41.914;22.438;2023-11-19T10:01:44;2.53;;;1.20;;
82642;SDS011;72323;41.914;22.438;2023-11-19T10:04:11;2.08;;;1.13;;
82642;SDS011;72323;41.914;22.438;2023-11-19T10:06:41;1.95;;;0.82;;
82642;SDS011;72323;41.914;22.438;2023-11-19T10:09:07;2.42;;;1.20;;
82642;SDS011;72323;41.914;22.438;2023-11-19T10:11:33;2.58;;;1.27;;
82642;SDS011;72323;41.914;22.438;2023-11-19T10:14:00;2.30;;;1.70;;
82642;SDS011;72323;41.914;22.438;2023-11-19T10:16:29;2.45;;;1.10;;
82642;SDS011;72323;41.914;22.438;2023-11-19T10:18:56;2.95;;;1.50;;
82642;SDS011;72323;41.914;22.438;2023-11-19T10:21:22;2.72;;;1.30;;
82642;SDS011;72323;41.914;22.438;2023-11-19T10:23:52;2.10;;;1.30;;
82642;SDS011;72323;41.914;22.438;2023-11-19T10:26:19;2.63;;;1.10;;
82642;SDS011;72323;41.914;22.438;2023-11-19T10:28:46;2.00;;;1.50;;
82642;SDS011;72323;41.914;22.438;2023-11-19T10:31:13;1.98;;;1.40;;
82642;SDS011;72323;41.914;22.438;2023-11-19T10:33:39;1.63;;;1.10;;
82642;SDS011;72323;41.914;22.438;2023-11-19T10:36:05;2.25;;;1.20;;
82642;SDS011;72323;41.914;22.438;2023-11-19T10:38:32;1.40;;;0.90;;
82642;SDS011;72323;41.914;22.438;2023-11-19T10:40:58;1.88;;;1.10;;
82642;SDS011;72323;41.914;22.438;2023-11-19T10:43:24;2.10;;;1.10;;
82642;SDS011;72323;41.914;22.438;2023-11-19T10:45:51;2.58;;;1.10;;
82642;SDS011;72323;41.914;22.438;2023-11-19T10:48:17;2.53;;;1.60;;
82642;SDS011;72323;41.914;22.438;2023-11-19T10:50:44;1.98;;;1.00;;
82642;SDS011;72323;41.914;22.438;2023-11-19T10:53:10;3.17;;;1.40;;
82642;SDS011;72323;41.914;22.438;2023-11-19T10:55:40;2.50;;;1.50;;
82642;SDS011;72323;41.914;22.438;2023-11-19T10:58:09;2.10;;;0.80;;
82642;SDS011;72323;41.914;22.438;2023-11-19T11:00:39;3.70;;;2.00;;
82642;SDS011;72323;41.914;22.438;2023-11-19T11:03:18;2.83;;;1.35;;
82642;SDS011;72323;41.914;22.438;2023-11-19T11:05:48;1.60;;;1.08;;
82642;SDS011;72323;41.914;22.438;2023-11-19T11:08:15;4.35;;;1.23;;
82642;SDS011;72323;41.914;22.438;2023-11-19T11:10:44;1.50;;;1.23;;
82642;SDS011;72323;41.914;22.438;2023-11-19T11:13:11;1.98;;;1.30;;
82642;SDS011;72323;41.914;22.438;2023-11-19T11:15:39;1.98;;;1.27;;
82642;SDS011;72323;41.914;22.438;2023-11-19T11:18:08;1.83;;;1.17;;
82642;SDS011;72323;41.914;22.438;2023-11-19T11:20:35;2.13;;;1.20;;
82642;SDS011;72323;41.914;22.438;2023-11-19T11:23:06;2.78;;;1.00;;
82642;SDS011;72323;41.914;22.438;2023-11-19T11:25:40;2.03;;;1.30;;
82642;SDS011;72323;41.914;22.438;2023-11-19T11:28:21;2.20;;;1.20;;
82642;SDS011;72323;41.914;22.438;2023-11-19T11:36:19;1.90;;;1.15;;
82642;SDS011;72323;41.914;22.438;2023-11-19T11:38:46;2.10;;;1.20;;
82642;SDS011;72323;41.914;22.438;2023-11-19T11:43:49;2.28;;;1.30;;
82642;SDS011;72323;41.914;22.438;2023-11-19T11:49:01;2.05;;;1.20;;
82642;SDS011;72323;41.914;22.438;2023-11-19T11:54:09;2.47;;;1.35;;
82642;SDS011;72323;41.914;22.438;2023-11-19T11:56:38;2.67;;;1.40;;
82642;SDS011;72323;41.914;22.438;2023-11-19T11:59:19;2.40;;;1.33;;
82642;SDS011;72323;41.914;22.438;2023-11-19T12:02:07;2.08;;;1.20;;
82642;SDS011;72323;41.914;22.438;2023-11-19T12:04:31;2.45;;;0.95;;
82642;SDS011;72323;41.914;22.438;2023-11-19T12:09:31;1.77;;;1.00;;
82642;SDS011;72323;41.914;22.438;2023-11-19T12:20:09;4.05;;;1.27;;
82642;SDS011;72323;41.914;22.438;2023-11-19T12:22:37;2.38;;;1.23;;
82642;SDS011;72323;41.914;22.438;2023-11-19T12:25:04;1.85;;;1.02;;
82642;SDS011;72323;41.914;22.438;2023-11-19T12:27:31;2.97;;;1.42;;
82642;SDS011;72323;41.914;22.438;2023-11-19T12:29:58;2.08;;;1.20;;
82642;SDS011;72323;41.914;22.438;2023-11-19T12:32:25;3.20;;;1.60;;
82642;SDS011;72323;41.914;22.438;2023-11-19T12:34:51;3.85;;;1.80;;
82642;SDS011;72323;41.914;22.438;2023-11-19T12:37:17;4.25;;;2.05;;
82642;SDS011;72323;41.914;22.438;2023-11-19T12:39:43;5.07;;;1.67;;
82642;SDS011;72323;41.914;22.438;2023-11-19T12:42:09;2.88;;;1.30;;
82642;SDS011;72323;41.914;22.438;2023-11-19T12:44:36;2.92;;;1.27;;
82642;SDS011;72323;41.914;22.438;2023-11-19T12:47:06;2.83;;;1.40;;
82642;SDS011;72323;41.914;22.438;2023-11-19T12:49:33;2.60;;;1.42;;
82642;SDS011;72323;41.914;22.438;2023-11-19T12:51:59;2.83;;;1.30;;
82642;SDS011;72323;41.914;22.438;2023-11-19T12:54:35;2.47;;;1.40;;
82642;SDS011;72323;41.914;22.438;2023-11-19T12:57:01;2.92;;;1.48;;
82642;SDS011;72323;41.914;22.438;2023-11-19T12:59:28;3.00;;;1.60;;
82642;SDS011;72323;41.914;22.438;2023-11-19T13:01:57;2.40;;;1.40;;
82642;SDS011;72323;41.914;22.438;2023-11-19T13:04:23;2.83;;;1.45;;
82642;SDS011;72323;41.914;22.438;2023-11-19T13:06:53;3.17;;;1.70;;
82642;SDS011;72323;41.914;22.438;2023-11-19T13:09:23;2.10;;;1.10;;
82642;SDS011;72323;41.914;22.438;2023-11-19T13:11:52;3.25;;;1.10;;
82642;SDS011;72323;41.914;22.438;2023-11-19T13:14:19;3.38;;;1.42;;
82642;SDS011;72323;41.914;22.438;2023-11-19T13:16:45;2.05;;;1.15;;
82642;SDS011;72323;41.914;22.438;2023-11-19T13:19:12;2.35;;;1.25;;
82642;SDS011;72323;41.914;22.438;2023-11-19T13:21:38;2.15;;;1.33;;
82642;SDS011;72323;41.914;22.438;2023-11-19T13:24:07;2.85;;;1.23;;
82642;SDS011;72323;41.914;22.438;2023-11-19T13:26:34;3.38;;;1.08;;
82642;SDS011;72323;41.914;22.438;2023-11-19T13:29:00;3.15;;;1.35;;
82642;SDS011;72323;41.914;22.438;2023-11-19T13:31:26;2.25;;;1.30;;
82642;SDS011;72323;41.914;22.438;2023-11-19T13:33:52;7.60;;;2.75;;
82642;SDS011;72323;41.914;22.438;2023-11-19T13:36:18;10.77;;;4.68;;
82642;SDS011;72323;41.914;22.438;2023-11-19T13:38:44;10.15;;;5.30;;
82642;SDS011;72323;41.914;22.438;2023-11-19T13:41:11;48.15;;;16.13;;
82642;SDS011;72323;41.914;22.438;2023-11-19T13:43:38;91.05;;;31.33;;
82642;SDS011;72323;41.914;22.438;2023-11-19T13:46:05;79.00;;;27.25;;
82642;SDS011;72323;41.914;22.438;2023-11-19T13:48:31;36.90;;;12.15;;
82642;SDS011;72323;41.914;22.438;2023-11-19T13:50:57;30.67;;;10.20;;
82642;SDS011;72323;41.914;22.438;2023-11-19T13:53:23;42.00;;;13.43;;
82642;SDS011;72323;41.914;22.438;2023-11-19T13:55:50;205.30;;;64.03;;
82642;SDS011;72323;41.914;22.438;2023-11-19T13:58:16;169.25;;;53.75;;
82642;SDS011;72323;41.914;22.438;2023-11-19T14:00:42;256.20;;;76.80;;
82642;SDS011;72323;41.914;22.438;2023-11-19T14:03:08;193.05;;;52.85;;
82642;SDS011;72323;41.914;22.438;2023-11-19T14:08:04;192.98;;;62.20;;
82642;SDS011;72323;41.914;22.438;2023-11-19T14:10:39;149.75;;;55.25;;
82642;SDS011;72323;41.914;22.438;2023-11-19T14:13:06;56.45;;;23.95;;
82642;SDS011;72323;41.914;22.438;2023-11-19T14:15:32;56.75;;;26.70;;
82642;SDS011;72323;41.914;22.438;2023-11-19T14:17:58;18.95;;;9.95;;
82642;SDS011;72323;41.914;22.438;2023-11-19T14:20:24;7.35;;;3.80;;
82642;SDS011;72323;41.914;22.438;2023-11-19T14:22:50;4.97;;;3.35;;
82642;SDS011;72323;41.914;22.438;2023-11-19T14:25:17;4.57;;;2.53;;
82642;SDS011;72323;41.914;22.438;2023-11-19T14:27:44;6.35;;;3.00;;
82642;SDS011;72323;41.914;22.438;2023-11-19T14:30:13;4.55;;;2.58;;
82642;SDS011;72323;41.914;22.438;2023-11-19T14:32:42;4.22;;;2.40;;
82642;SDS011;72323;41.914;22.438;2023-11-19T14:35:10;5.68;;;2.70;;
82642;SDS011;72323;41.914;22.438;2023-11-19T14:37:37;4.38;;;1.90;;
82642;SDS011;72323;41.914;22.438;2023-11-19T14:40:03;3.10;;;1.65;;
82642;SDS011;72323;41.914;22.438;2023-11-19T14:42:30;5.25;;;2.00;;
82642;SDS011;72323;41.914;22.438;2023-11-19T14:44:56;5.80;;;1.92;;
82642;SDS011;72323;41.914;22.438;2023-11-19T14:47:23;6.85;;;2.30;;
82642;SDS011;72323;41.914;22.438;2023-11-19T14:49:49;4.03;;;1.88;;
82642;SDS011;72323;41.914;22.438;2023-11-19T14:52:15;4.68;;;2.03;;
82642;SDS011;72323;41.914;22.438;2023-11-19T14:54:42;5.20;;;2.60;;
82642;SDS011;72323;41.914;22.438;2023-11-19T14:57:08;3.42;;;1.80;;
82642;SDS011;72323;41.914;22.438;2023-11-19T14:59:34;3.55;;;1.90;;
82642;SDS011;72323;41.914;22.438;2023-11-19T15:02:00;4.97;;;2.17;;